Time;durP1;ratioP1;P1;durP2;ratioP2;P2;SDS_P1;SDS_P2;PMS_P1;PMS_P2;Temp;Humidity;BMP_temperature;BMP_pressure;BME280_temperature;BME280_humidity;BME280_pressure;Samples;Min_cycle;Max_cycle;Signal;HPM_P1;HPM_P2
2023/04/12 00:00:22;;;;;;;9.45;4.53;;;;;;;12.81;49.30;100235.25;5057329;28;20388;-76
2023/04/12 00:02:53;;;;;;;5.70;4.20;;;;;;;12.76;49.53;100233.19;5057298;28;20415;-77
2023/04/12 00:05:26;;;;;;;6.53;4.70;;;;;;;12.84;49.16;100226.06;5057499;28;20380;-75
2023/04/12 00:07:52;;;;;;;6.13;3.38;;;;;;;12.81;49.34;100233.41;5056373;28;20377;-78
2023/04/12 00:10:18;;;;;;;5.83;3.50;;;;;;;12.73;49.46;100236.25;5057475;28;20841;-77
2023/04/12 00:12:43;;;;;;;5.57;3.13;;;;;;;12.70;49.57;100244.59;5054404;28;20385;-76
2023/04/12 00:15:09;;;;;;;8.40;4.63;;;;;;;12.84;49.43;100250.00;5054042;28;20384;-77
2023/04/12 00:17:35;;;;;;;8.20;4.30;;;;;;;12.83;49.32;100246.53;5052791;28;20377;-77
2023/04/12 00:20:04;;;;;;;8.05;4.70;;;;;;;12.73;49.54;100248.69;5054193;28;20460;-77
2023/04/12 00:22:30;;;;;;;6.30;4.68;;;;;;;12.70;49.61;100239.28;5054077;28;20377;-77
2023/04/12 00:24:55;;;;;;;9.55;4.78;;;;;;;12.74;49.49;100234.41;5053986;28;20464;-77
2023/04/12 00:27:21;;;;;;;6.85;4.57;;;;;;;12.65;49.60;100235.56;5054104;28;20456;-77
2023/04/12 00:29:46;;;;;;;5.20;4.20;;;;;;;12.62;49.62;100226.13;5053930;28;20413;-77
2023/04/12 00:32:12;;;;;;;7.10;4.78;;;;;;;12.51;50.05;100226.69;5052926;28;20466;-77
2023/04/12 00:34:37;;;;;;;8.20;4.13;;;;;;;12.47;50.07;100228.09;5053937;28;20377;-78
2023/04/12 00:37:03;;;;;;;7.22;4.05;;;;;;;12.56;50.10;100230.41;5053968;28;20852;-77
2023/04/12 00:39:28;;;;;;;7.23;3.90;;;;;;;12.61;49.95;100230.63;5053923;28;20430;-76
2023/04/12 00:41:55;;;;;;;9.37;4.27;;;;;;;12.59;50.06;100216.72;5053775;28;20389;-76
2023/04/12 00:44:22;;;;;;;8.43;4.25;;;;;;;12.62;49.81;100221.66;5054352;28;20380;-76
2023/04/12 00:46:47;;;;;;;4.87;3.60;;;;;;;12.64;49.98;100224.13;5055105;28;20377;-77
2023/04/12 00:49:14;;;;;;;7.20;3.90;;;;;;;12.61;50.19;100229.81;5053575;28;20404;-77
2023/04/12 00:51:40;;;;;;;5.40;3.80;;;;;;;12.61;50.15;100216.53;5053530;28;20463;-76
2023/04/12 00:54:06;;;;;;;6.65;3.78;;;;;;;12.62;50.24;100212.84;5053576;28;20416;-77
2023/04/12 00:56:33;;;;;;;8.07;3.67;;;;;;;12.58;50.24;100216.91;5053029;28;20388;-78
2023/04/12 00:58:58;;;;;;;5.90;4.25;;;;;;;12.53;50.55;100216.69;5053586;28;20856;-77
2023/04/12 01:01:24;;;;;;;6.43;4.57;;;;;;;12.61;50.48;100216.53;5054824;28;20459;-76
2023/04/12 01:03:52;;;;;;;7.10;3.50;;;;;;;12.67;50.30;100222.91;5056096;28;20459;-76
2023/04/12 01:06:49;;;;;;;6.30;3.63;;;;;;;12.69;50.20;100216.34;5052102;28;20384;-77
2023/04/12 01:09:42;;;;;;;8.63;5.05;;;;;;;12.72;50.26;100223.13;5053007;28;20496;-76
2023/04/12 01:12:31;;;;;;;9.43;4.30;;;;;;;12.76;50.12;100211.09;5053084;28;20384;-76
2023/04/12 01:15:17;;;;;;;6.17;3.70;;;;;;;12.90;49.76;100218.13;5052910;28;20380;-77
2023/04/12 01:17:48;;;;;;;11.88;5.30;;;;;;;12.86;49.74;100216.06;5053031;28;20385;-77
2023/04/12 01:20:18;;;;;;;9.45;5.50;;;;;;;13.00;49.43;100210.59;5053401;28;20385;-77
2023/04/12 01:22:53;;;;;;;8.95;5.13;;;;;;;12.99;49.20;100203.63;5052710;28;20450;-77
2023/04/12 01:25:28;;;;;;;6.70;4.55;;;;;;;12.98;49.59;100209.97;5051977;28;20421;-77
2023/04/12 01:27:58;;;;;;;8.77;5.30;;;;;;;12.98;49.73;100212.63;5052573;28;20380;-77
2023/04/12 01:30:26;;;;;;;7.53;4.53;;;;;;;12.84;50.26;100208.28;5052364;28;20450;-76
2023/04/12 01:32:54;;;;;;;7.10;4.60;;;;;;;12.77;50.39;100208.22;5051543;28;20427;-76
2023/04/12 01:35:22;;;;;;;8.60;5.43;;;;;;;12.87;50.24;100204.38;5052407;28;20420;-76
2023/04/12 01:37:48;;;;;;;8.40;4.72;;;;;;;12.87;50.19;100196.41;5052395;28;20388;-76
2023/04/12 01:40:14;;;;;;;6.68;4.43;;;;;;;12.90;50.33;100193.34;5052753;28;20373;-76
2023/04/12 01:42:40;;;;;;;8.95;3.60;;;;;;;12.87;50.46;100201.72;5052386;28;20849;-76
2023/04/12 01:45:06;;;;;;;8.47;3.60;;;;;;;12.76;50.60;100185.31;5051970;28;20388;-77
2023/04/12 01:47:34;;;;;;;7.50;3.63;;;;;;;12.89;50.53;100191.72;5052256;28;20392;-76
2023/04/12 01:50:21;;;;;;;6.72;3.50;;;;;;;12.86;50.33;100182.28;5052327;28;20401;-76
2023/04/12 01:53:04;;;;;;;9.50;4.03;;;;;;;12.89;50.50;100187.22;5052078;28;20412;-76
2023/04/12 01:55:31;;;;;;;9.10;4.05;;;;;;;12.92;50.43;100197.44;5052169;28;20411;-77
2023/04/12 01:57:58;;;;;;;11.15;4.50;;;;;;;12.94;50.35;100190.09;5051979;28;20750;-76
2023/04/12 02:00:24;;;;;;;10.40;4.20;;;;;;;13.01;50.32;100201.59;5051768;28;20376;-77
2023/04/12 02:02:50;;;;;;;6.97;3.95;;;;;;;12.87;50.53;100204.38;5052095;28;21370;-77
2023/04/12 02:05:16;;;;;;;9.40;4.87;;;;;;;12.92;50.41;100201.97;5051915;28;20372;-77
2023/04/12 02:07:42;;;;;;;7.35;4.72;;;;;;;12.97;50.27;100208.31;5051992;28;20392;-77
2023/04/12 02:10:12;;;;;;;11.43;4.32;;;;;;;12.82;50.55;100210.31;5051727;28;20732;-77
2023/04/12 02:12:38;;;;;;;10.13;4.53;;;;;;;12.86;50.67;100205.41;5051783;28;20891;-77
2023/04/12 02:15:06;;;;;;;5.87;4.40;;;;;;;12.78;50.74;100225.84;5051542;28;20412;-77
2023/04/12 02:17:32;;;;;;;8.68;4.30;;;;;;;12.65;50.84;100216.97;5051895;28;20815;-77
2023/04/12 02:19:58;;;;;;;6.68;3.45;;;;;;;12.60;51.25;100221.03;5051800;28;21111;-77
2023/04/12 02:22:24;;;;;;;8.93;4.18;;;;;;;12.61;51.14;100216.53;5051677;28;20388;-77
2023/04/12 02:24:49;;;;;;;11.20;3.73;;;;;;;12.49;51.28;100231.38;5051687;28;20494;-77
2023/04/12 02:27:17;;;;;;;7.07;4.03;;;;;;;12.52;51.19;100237.13;5051972;28;20459;-78
2023/04/12 02:29:43;;;;;;;9.55;4.20;;;;;;;12.44;51.32;100221.31;5050302;28;20404;-77
2023/04/12 02:32:09;;;;;;;5.93;3.73;;;;;;;12.53;51.05;100220.19;5051442;28;20521;-77
2023/04/12 02:34:37;;;;;;;7.33;4.03;;;;;;;12.49;50.98;100218.91;5046099;28;20425;-77
2023/04/12 02:37:03;;;;;;;9.07;4.30;;;;;;;12.51;51.00;100218.72;5039760;28;20435;-77
2023/04/12 02:39:30;;;;;;;10.63;4.80;;;;;;;12.45;51.08;100222.16;5041037;28;20373;-77
2023/04/12 02:41:56;;;;;;;8.85;4.43;;;;;;;12.54;50.99;100226.31;5041084;28;20390;-76
2023/04/12 02:44:22;;;;;;;10.95;4.53;;;;;;;12.47;50.87;100220.94;5041768;28;20392;-76
2023/04/12 02:46:47;;;;;;;12.03;4.57;;;;;;;12.41;51.25;100221.72;5039314;28;20378;-77
2023/04/12 02:49:13;;;;;;;9.75;4.32;;;;;;;12.31;51.40;100226.56;5041634;28;20396;-77
2023/04/12 02:51:38;;;;;;;8.60;4.10;;;;;;;12.13;51.98;100227.03;5044057;28;20405;-77
2023/04/12 02:54:04;;;;;;;10.75;4.75;;;;;;;12.00;52.20;100225.91;5048078;28;20421;-75
2023/04/12 02:56:30;;;;;;;10.23;4.20;;;;;;;11.91;52.66;100236.84;5046845;28;20452;-76
2023/04/12 02:58:55;;;;;;;9.77;4.95;;;;;;;12.05;52.37;100235.97;5040650;28;20376;-76
2023/04/12 03:01:21;;;;;;;8.23;4.30;;;;;;;12.01;52.50;100245.31;5046902;28;20391;-76
2023/04/12 03:03:46;;;;;;;6.20;3.97;;;;;;;12.09;52.41;100234.56;5049864;28;20369;-77
2023/04/12 03:06:12;;;;;;;6.13;3.90;;;;;;;11.91;52.76;100237.66;5050534;28;20377;-77
2023/04/12 03:08:38;;;;;;;7.30;4.50;;;;;;;11.86;52.97;100238.19;5049957;28;20404;-77
2023/04/12 03:11:04;;;;;;;8.20;4.17;;;;;;;11.96;52.74;100226.50;5051057;28;20446;-77
2023/04/12 03:13:29;;;;;;;7.53;3.83;;;;;;;11.99;52.53;100240.22;5050962;28;20384;-78
2023/04/12 03:15:57;;;;;;;8.75;3.85;;;;;;;12.11;52.43;100247.66;5051388;28;20388;-77
2023/04/12 03:18:23;;;;;;;7.72;4.00;;;;;;;11.98;52.35;100246.53;5051088;28;20723;-76
2023/04/12 03:20:51;;;;;;;4.80;2.83;;;;;;;11.85;52.34;100238.41;5050962;28;20722;-76
2023/04/12 03:23:16;;;;;;;9.13;3.83;;;;;;;11.96;52.31;100253.88;5051099;28;20408;-77
2023/04/12 03:25:43;;;;;;;5.77;3.43;;;;;;;11.97;52.29;100252.84;5035663;28;20787;-78
2023/04/12 03:28:08;;;;;;;5.97;3.60;;;;;;;12.00;51.86;100249.81;5030525;28;20470;-77
2023/04/12 03:30:34;;;;;;;5.83;3.73;;;;;;;12.18;51.35;100256.50;5030653;28;20465;-77
2023/04/12 03:32:59;;;;;;;6.77;3.13;;;;;;;12.04;51.46;100247.59;5030237;28;20720;-77
2023/04/12 03:35:25;;;;;;;7.68;3.10;;;;;;;12.09;51.15;100253.16;5030055;28;20382;-77
2023/04/12 03:37:50;;;;;;;9.20;3.20;;;;;;;12.19;50.62;100272.25;5031013;28;20375;-76
2023/04/12 03:40:16;;;;;;;6.10;2.92;;;;;;;11.97;51.03;100263.47;5029689;28;20882;-77
2023/04/12 03:42:41;;;;;;;7.27;2.80;;;;;;;11.95;50.98;100259.34;5029556;28;20381;-77
2023/04/12 03:45:07;;;;;;;8.87;3.53;;;;;;;12.01;50.79;100269.22;5029525;28;20379;-76
2023/04/12 03:47:32;;;;;;;7.28;3.25;;;;;;;11.99;50.63;100268.59;5031008;28;20378;-76
2023/04/12 03:50:05;;;;;;;6.53;3.30;;;;;;;12.16;50.30;100262.00;5034428;28;20892;-76
2023/04/12 03:52:32;;;;;;;8.77;3.30;;;;;;;12.19;49.97;100256.31;5034432;28;20467;-76
2023/04/12 03:54:57;;;;;;;8.90;3.85;;;;;;;12.21;50.03;100258.78;5034264;28;20382;-76
2023/04/12 03:57:23;;;;;;;7.10;3.30;;;;;;;12.24;49.75;100264.53;5033669;28;20375;-77
2023/04/12 03:59:48;;;;;;;5.73;3.40;;;;;;;12.28;49.76;100272.94;5033568;28;20476;-77
2023/04/12 04:02:14;;;;;;;7.38;3.50;;;;;;;12.30;49.44;100260.28;5043487;28;20881;-76
2023/04/12 04:04:40;;;;;;;7.53;3.63;;;;;;;12.45;49.08;100270.00;5053657;28;20868;-76
2023/04/12 04:07:06;;;;;;;7.87;3.10;;;;;;;12.55;48.82;100273.97;5039184;28;20409;-77
2023/04/12 04:09:33;;;;;;;7.00;2.72;;;;;;;12.33;49.10;100270.50;5033873;28;20472;-76
2023/04/12 04:11:58;;;;;;;9.63;2.97;;;;;;;12.34;48.67;100272.16;5033319;28;20460;-76
2023/04/12 04:14:24;;;;;;;4.73;2.43;;;;;;;12.20;48.89;100273.88;5034283;28;20406;-76
2023/04/12 04:16:50;;;;;;;7.32;2.20;;;;;;;12.08;48.67;100271.94;5033545;28;20382;-76
2023/04/12 04:19:15;;;;;;;7.22;2.50;;;;;;;12.03;48.01;100265.38;5036965;28;20787;-77
2023/04/12 04:21:41;;;;;;;6.33;2.13;;;;;;;11.96;47.36;100269.81;5034533;28;20401;-77
2023/04/12 04:24:10;;;;;;;9.13;2.63;;;;;;;11.88;47.09;100280.50;5045623;28;20377;-77
2023/04/12 04:26:37;;;;;;;5.78;1.90;;;;;;;11.83;46.96;100274.97;5053478;28;20861;-77
2023/04/12 04:29:03;;;;;;;7.13;2.75;;;;;;;11.98;46.69;100275.75;5053762;28;20407;-77
2023/04/12 04:31:33;;;;;;;6.97;2.10;;;;;;;11.98;46.51;100277.59;5053826;28;20442;-77
2023/04/12 04:34:04;;;;;;;6.72;2.00;;;;;;;11.90;46.82;100291.78;5053752;28;20388;-78
2023/04/12 04:36:32;;;;;;;4.47;1.73;;;;;;;11.98;46.57;100278.41;5058145;28;20377;-77
2023/04/12 04:38:58;;;;;;;7.10;2.10;;;;;;;11.92;46.73;100291.59;5053160;28;20375;-77
2023/04/12 04:41:24;;;;;;;6.22;2.13;;;;;;;11.78;46.64;100291.44;5046652;28;20386;-77
2023/04/12 04:43:50;;;;;;;5.75;2.10;;;;;;;11.88;46.76;100298.28;5046731;28;20380;-77
2023/04/12 04:46:19;;;;;;;5.35;2.10;;;;;;;11.91;46.78;100304.06;5053242;28;20436;-77
2023/04/12 04:48:46;;;;;;;6.77;2.30;;;;;;;11.75;47.02;100307.75;5045961;28;20495;-77
2023/04/12 04:51:12;;;;;;;10.23;2.63;;;;;;;11.70;47.14;100317.28;5034132;28;20394;-77
2023/04/12 04:53:37;;;;;;;10.43;3.17;;;;;;;11.80;47.20;100312.50;5046901;28;20423;-77
2023/04/12 04:56:03;;;;;;;7.55;2.60;;;;;;;11.94;46.78;100332.06;5043819;28;20468;-76
2023/04/12 04:58:29;;;;;;;6.78;2.13;;;;;;;11.84;46.95;100335.00;5044315;28;20425;-76
2023/04/12 05:00:56;;;;;;;8.50;2.40;;;;;;;11.84;46.96;100332.34;5044896;28;20479;-76
2023/04/12 05:03:21;;;;;;;6.63;2.30;;;;;;;11.81;47.10;100349.50;5042835;28;20387;-76
2023/04/12 05:05:48;;;;;;;7.40;2.43;;;;;;;11.95;47.15;100352.31;5044619;28;20389;-76
2023/04/12 05:08:14;;;;;;;7.00;2.20;;;;;;;11.93;47.22;100362.31;5037115;28;20436;-76
2023/04/12 05:10:41;;;;;;;7.10;2.30;;;;;;;11.63;48.11;100357.03;5036336;28;20376;-77
2023/04/12 05:13:08;;;;;;;7.55;2.42;;;;;;;11.84;47.75;100348.28;5046085;28;20525;-78
2023/04/12 05:15:34;;;;;;;7.30;2.25;;;;;;;11.95;47.60;100349.66;5041078;28;20421;-76
2023/04/12 05:18:00;;;;;;;11.50;3.33;;;;;;;11.91;47.91;100345.75;5038203;28;20540;-78
2023/04/12 05:20:25;;;;;;;9.97;3.37;;;;;;;12.10;47.77;100346.97;5048192;28;20986;-77
2023/04/12 05:22:51;;;;;;;9.13;2.80;;;;;;;11.78;48.61;100349.88;5035875;28;20380;-76
2023/04/12 05:25:16;;;;;;;10.03;2.77;;;;;;;11.77;48.75;100348.22;5043419;28;20469;-77
2023/04/12 05:27:43;;;;;;;5.97;2.47;;;;;;;11.86;48.52;100340.97;5032473;28;20785;-76
2023/04/12 05:30:09;;;;;;;12.20;2.97;;;;;;;11.96;48.67;100340.72;5032205;28;20467;-76
2023/04/12 05:32:34;;;;;;;9.50;2.90;;;;;;;12.09;48.55;100334.69;5037356;28;20393;-76
2023/04/12 05:35:00;;;;;;;6.33;2.13;;;;;;;12.10;48.47;100329.19;5052530;28;20380;-76
2023/04/12 05:37:27;;;;;;;5.40;2.00;;;;;;;11.91;48.61;100338.59;5043909;28;20398;-78
2023/04/12 05:39:52;;;;;;;2.75;1.75;;;;;;;11.98;48.93;100338.69;5032776;28;20402;-77
2023/04/12 05:42:18;;;;;;;6.68;2.35;;;;;;;12.15;48.63;100345.38;5047794;28;20419;-76
2023/04/12 05:44:44;;;;;;;5.37;2.47;;;;;;;12.38;48.14;100339.88;5048115;28;20398;-78
2023/04/12 05:47:09;;;;;;;6.97;2.70;;;;;;;12.72;47.43;100333.00;5040309;28;20413;-79
2023/04/12 05:49:35;;;;;;;4.18;1.98;;;;;;;12.66;47.19;100340.91;5042434;28;20984;-77
2023/04/12 05:52:01;;;;;;;4.83;1.97;;;;;;;12.49;47.56;100325.25;5046218;28;20388;-77
2023/04/12 05:54:26;;;;;;;4.63;2.40;;;;;;;12.69;47.29;100322.72;5052320;28;20401;-78
2023/04/12 05:56:55;;;;;;;8.02;2.97;;;;;;;13.05;46.49;100318.28;5053508;28;20718;-78
2023/04/12 05:59:21;;;;;;;6.88;2.95;;;;;;;13.25;45.83;100318.38;5040069;28;20440;-76
2023/04/12 06:01:47;;;;;;;4.50;3.55;;;;;;;13.37;45.45;100312.31;5049964;28;20460;-76
2023/04/12 06:04:13;;;;;;;3.40;3.20;;;;;;;13.52;45.19;100324.66;5039364;28;20386;-76
2023/04/12 06:06:39;;;;;;;4.03;3.42;;;;;;;13.53;45.29;100321.00;5042849;28;20390;-77
2023/04/12 06:09:05;;;;;;;3.80;3.15;;;;;;;13.51;44.97;100310.53;5044255;28;20404;-77
2023/04/12 06:11:32;;;;;;;6.50;2.40;;;;;;;13.72;43.92;100304.28;5039897;28;20907;-76
2023/04/12 06:13:59;;;;;;;4.85;3.45;;;;;;;13.69;43.63;100309.19;5038844;28;20459;-77
2023/04/12 06:16:25;;;;;;;5.10;2.78;;;;;;;13.25;44.59;100311.19;5057614;28;20375;-76
2023/04/12 06:18:50;;;;;;;5.30;3.55;;;;;;;13.39;44.34;100312.94;5044973;28;20384;-77
2023/04/12 06:21:17;;;;;;;5.63;2.95;;;;;;;13.32;44.10;100313.94;5039544;28;20420;-76
2023/04/12 06:23:42;;;;;;;8.60;3.30;;;;;;;13.30;43.96;100287.47;5045782;28;20850;-76
2023/04/12 06:26:08;;;;;;;9.40;2.95;;;;;;;13.47;43.29;100287.16;5042869;28;20388;-76
2023/04/12 06:28:34;;;;;;;5.13;3.03;;;;;;;13.45;42.51;100283.88;5049711;28;20435;-76
2023/04/12 06:31:00;;;;;;;8.20;3.65;;;;;;;13.39;42.47;100288.16;5032266;28;20386;-76
2023/04/12 06:33:26;;;;;;;4.17;2.80;;;;;;;13.49;42.52;100272.66;5041547;28;20386;-77
2023/04/12 06:35:51;;;;;;;8.85;3.47;;;;;;;13.53;41.75;100273.88;5041263;28;20384;-76
2023/04/12 06:38:17;;;;;;;10.18;3.17;;;;;;;13.47;40.83;100268.53;5040585;28;20485;-76
2023/04/12 06:40:43;;;;;;;5.78;2.90;;;;;;;13.51;40.27;100265.28;5032720;28;20714;-75
2023/04/12 06:43:09;;;;;;;4.68;2.75;;;;;;;13.73;39.84;100270.44;5044661;28;20390;-76
2023/04/12 06:45:34;;;;;;;7.53;2.70;;;;;;;13.62;39.30;100261.22;5040534;28;20737;-76
2023/04/12 06:48:00;;;;;;;6.18;2.50;;;;;;;13.84;38.98;100259.19;5038056;28;20398;-77
2023/04/12 06:50:25;;;;;;;7.57;2.53;;;;;;;13.62;37.99;100258.53;5042522;28;20416;-77
2023/04/12 06:52:51;;;;;;;11.80;2.33;;;;;;;13.76;37.92;100267.41;5034509;28;20478;-76
2023/04/12 06:55:16;;;;;;;9.87;2.47;;;;;;;13.76;38.18;100254.06;5042074;28;20390;-77
2023/04/12 06:57:43;;;;;;;6.13;2.20;;;;;;;13.68;37.85;100243.59;5032597;28;20495;-76
2023/04/12 07:00:09;;;;;;;5.03;2.08;;;;;;;13.85;37.69;100234.22;5044316;28;20396;-76
2023/04/12 07:02:35;;;;;;;5.70;2.30;;;;;;;13.83;37.95;100241.59;5052928;28;20957;-78
2023/04/12 07:05:01;;;;;;;3.80;3.03;;;;;;;13.87;36.91;100242.81;5033838;28;20405;-76
2023/04/12 07:07:26;;;;;;;4.18;2.60;;;;;;;13.77;37.03;100245.03;5032256;28;20424;-75
2023/04/12 07:09:51;;;;;;;7.77;3.57;;;;;;;14.04;36.77;100248.56;5036344;28;20590;-76
2023/04/12 07:12:17;;;;;;;7.93;3.63;;;;;;;13.93;36.29;100259.81;5031970;28;20410;-76
2023/04/12 07:14:43;;;;;;;3.53;2.43;;;;;;;13.75;36.16;100260.41;5034170;28;20390;-75
2023/04/12 07:17:08;;;;;;;6.80;3.22;;;;;;;13.73;36.22;100265.94;5039696;28;20390;-76
2023/04/12 07:19:34;;;;;;;3.83;2.77;;;;;;;13.93;36.08;100251.84;5037597;28;20504;-76
2023/04/12 07:22:00;;;;;;;7.27;3.53;;;;;;;14.21;36.21;100285.50;5040919;28;20940;-76
2023/04/12 07:24:25;;;;;;;6.43;2.43;;;;;;;14.19;36.50;100269.69;5051007;28;20384;-77
2023/04/12 07:26:54;;;;;;;3.50;2.07;;;;;;;14.26;36.46;100259.03;5051516;28;20402;-76
2023/04/12 07:29:19;;;;;;;2.83;1.30;;;;;;;14.23;37.94;100260.25;5042623;28;20865;-76
2023/04/12 07:31:45;;;;;;;4.55;2.45;;;;;;;14.33;38.18;100247.34;5053401;28;20404;-76
2023/04/12 07:34:11;;;;;;;2.73;1.80;;;;;;;14.18;38.44;100243.25;5041286;28;20391;-76
2023/04/12 07:36:37;;;;;;;5.55;1.73;;;;;;;14.01;38.64;100245.47;5044107;28;20392;-77
2023/04/12 07:39:02;;;;;;;3.35;1.80;;;;;;;14.38;38.10;100252.03;5045909;28;20383;-76
2023/04/12 07:41:28;;;;;;;3.07;1.83;;;;;;;14.48;38.51;100254.31;5052156;28;20388;-77
2023/04/12 07:43:53;;;;;;;4.30;2.00;;;;;;;14.02;38.80;100279.91;5043831;28;20740;-77
2023/04/12 07:46:19;;;;;;;4.03;1.70;;;;;;;13.66;40.15;100262.44;5036257;28;20457;-76
2023/04/12 07:48:45;;;;;;;3.80;1.67;;;;;;;13.88;39.84;100254.28;5050594;28;20884;-77
2023/04/12 07:51:11;;;;;;;3.17;1.80;;;;;;;13.88;39.84;100262.28;5039575;28;20396;-75
2023/04/12 07:53:37;;;;;;;4.97;1.95;;;;;;;14.05;40.14;100249.41;5056739;28;20412;-79
2023/04/12 07:56:05;;;;;;;11.15;1.73;;;;;;;14.25;39.37;100246.72;5041231;28;20422;-76
2023/04/12 07:58:32;;;;;;;4.13;1.13;;;;;;;13.87;39.31;100247.34;5041885;28;20390;-76
2023/04/12 08:00:57;;;;;;;2.30;0.95;;;;;;;13.37;40.45;100301.66;5054753;28;20384;-77
2023/04/12 08:03:23;;;;;;;2.35;1.20;;;;;;;13.44;40.15;100268.94;5052566;28;20384;-75
2023/04/12 08:05:52;;;;;;;4.53;1.43;;;;;;;13.27;40.63;100271.09;5044975;28;20387;-77
2023/04/12 08:08:20;;;;;;;2.42;1.40;;;;;;;13.14;41.21;100278.00;5040333;28;20516;-78
2023/04/12 08:10:45;;;;;;;4.07;1.50;;;;;;;13.28;40.82;100286.03;5037773;28;20378;-78
2023/04/12 08:13:11;;;;;;;3.45;1.50;;;;;;;13.44;41.13;100293.72;5042480;28;20848;-76
2023/04/12 08:15:36;;;;;;;5.40;1.63;;;;;;;13.24;40.00;100301.59;5054077;28;20449;-77
2023/04/12 08:18:02;;;;;;;8.20;2.38;;;;;;;13.62;39.72;100276.38;5054084;28;20443;-76
2023/04/12 08:20:29;;;;;;;6.45;1.85;;;;;;;13.50;39.86;100279.59;5053976;28;20393;-76
2023/04/12 08:22:54;;;;;;;5.55;2.00;;;;;;;13.41;40.49;100277.31;5054394;28;20381;-77
2023/04/12 08:25:20;;;;;;;2.15;1.60;;;;;;;13.27;39.97;100297.69;5053209;28;20396;-76
2023/04/12 08:27:45;;;;;;;5.80;2.50;;;;;;;13.39;40.60;100288.97;5052654;28;20380;-77
2023/04/12 08:30:12;;;;;;;5.80;2.33;;;;;;;12.93;40.82;100308.19;5068407;28;20857;-77
2023/04/12 08:32:38;;;;;;;4.50;1.80;;;;;;;13.28;40.78;100294.03;5049589;28;20389;-77
2023/04/12 08:35:04;;;;;;;5.27;2.13;;;;;;;13.46;41.04;100304.16;5046820;28;20491;-76
2023/04/12 08:37:30;;;;;;;7.00;2.78;;;;;;;13.72;40.76;100298.09;5049464;28;20392;-76
2023/04/12 08:39:59;;;;;;;6.90;2.10;;;;;;;13.73;40.42;100302.41;5040467;28;20381;-76
2023/04/12 08:42:26;;;;;;;6.97;2.08;;;;;;;13.33;40.46;100308.41;5054110;28;20442;-78
2023/04/12 08:44:52;;;;;;;5.57;2.13;;;;;;;13.14;40.38;100309.94;5052743;28;20381;-77
2023/04/12 08:47:19;;;;;;;3.45;1.70;;;;;;;13.41;40.08;100315.41;5037113;28;20446;-77
2023/04/12 08:49:45;;;;;;;3.33;1.95;;;;;;;13.41;39.75;100322.56;5051508;28;20417;-78
2023/04/12 08:52:11;;;;;;;4.63;2.20;;;;;;;13.22;39.53;100321.41;5052732;28;20396;-77
2023/04/12 08:54:36;;;;;;;8.82;2.63;;;;;;;13.25;40.03;100342.34;5054487;28;20379;-78
2023/04/12 08:57:06;;;;;;;5.20;2.20;;;;;;;13.23;40.18;100349.69;5053283;28;20467;-76
2023/04/12 08:59:35;;;;;;;6.75;2.42;;;;;;;13.15;40.26;100351.50;5041803;28;20386;-76
2023/04/12 09:02:01;;;;;;;7.80;2.60;;;;;;;12.91;40.31;100358.09;5041108;28;20952;-76
2023/04/12 09:04:26;;;;;;;2.67;1.97;;;;;;;12.72;41.12;100359.59;5036864;28;20480;-78
2023/04/12 09:06:52;;;;;;;4.60;2.23;;;;;;;12.79;40.83;100349.00;5033324;28;20394;-77
2023/04/12 09:09:18;;;;;;;3.50;2.07;;;;;;;12.82;40.35;100428.44;5041593;28;20417;-76
2023/04/12 09:11:43;;;;;;;4.97;2.65;;;;;;;13.03;40.30;100377.00;5051334;28;20381;-76
2023/04/12 09:14:24;;;;;;;10.93;3.20;;;;;;;13.31;40.07;100389.50;5052881;28;20717;-77
2023/04/12 09:16:50;;;;;;;5.93;3.00;;;;;;;13.28;40.50;100380.03;5053174;28;20416;-77
2023/04/12 09:19:30;;;;;;;3.88;1.85;;;;;;;13.12;40.23;100346.56;5052872;28;20376;-77
2023/04/12 09:21:56;;;;;;;8.43;2.35;;;;;;;13.32;40.32;100338.72;5052508;28;20829;-77
2023/04/12 09:24:24;;;;;;;3.13;1.93;;;;;;;13.19;39.62;100346.59;5052546;28;20388;-76
2023/04/12 09:27:06;;;;;;;6.30;2.60;;;;;;;13.45;39.68;100358.44;5052632;28;20468;-77
2023/04/12 09:29:33;;;;;;;7.38;2.55;;;;;;;13.45;39.57;100337.13;5050878;28;20407;-77
2023/04/12 09:32:04;;;;;;;5.93;2.70;;;;;;;13.44;39.48;100330.19;5052130;28;20380;-77
2023/04/12 09:34:32;;;;;;;4.50;2.28;;;;;;;13.36;39.36;100323.16;5051936;28;20388;-77
2023/04/12 09:36:57;;;;;;;5.18;2.53;;;;;;;13.56;39.10;100329.41;5052308;28;20883;-77
2023/04/12 09:39:33;;;;;;;3.67;2.43;;;;;;;13.70;38.78;100335.63;5052233;28;20373;-76
2023/04/12 09:42:09;;;;;;;4.50;2.55;;;;;;;13.67;38.72;100311.22;5054455;28;20923;-77
2023/04/12 09:44:35;;;;;;;8.88;3.20;;;;;;;13.65;38.64;100302.59;5046821;28;20487;-77
2023/04/12 09:47:03;;;;;;;9.93;3.30;;;;;;;13.71;38.35;100301.81;5033559;28;21220;-77
2023/04/12 09:49:40;;;;;;;5.60;1.83;;;;;;;14.10;38.44;100290.41;5032646;28;20406;-78
2023/04/12 09:52:07;;;;;;;3.22;2.30;;;;;;;14.19;38.03;100301.69;5035613;28;20481;-76
2023/04/12 09:54:38;;;;;;;4.78;2.90;;;;;;;14.32;37.99;100311.53;5048455;28;20445;-77
2023/04/12 09:57:10;;;;;;;7.13;2.92;;;;;;;14.53;37.44;100310.50;5046290;28;20458;-77
2023/04/12 09:59:40;;;;;;;5.35;2.13;;;;;;;14.41;36.52;100312.97;5037896;28;20394;-77
2023/04/12 10:02:12;;;;;;;6.32;2.42;;;;;;;14.41;36.79;100294.31;5048096;28;20476;-77
2023/04/12 10:04:39;;;;;;;6.53;1.95;;;;;;;14.06;36.35;100299.00;5040995;28;20385;-77
2023/04/12 10:07:05;;;;;;;5.78;2.40;;;;;;;14.07;37.31;100292.66;5047213;28;20399;-75
2023/04/12 10:09:32;;;;;;;5.53;2.50;;;;;;;14.59;36.58;100277.72;5051302;28;20408;-76
2023/04/12 10:12:00;;;;;;;4.65;2.42;;;;;;;14.58;36.87;100281.41;5051393;28;20419;-76
2023/04/12 10:14:27;;;;;;;3.88;2.00;;;;;;;14.36;35.83;100285.28;5051982;28;20546;-77
2023/04/12 10:16:56;;;;;;;5.10;2.10;;;;;;;14.28;36.63;100278.31;5050842;28;20381;-76
2023/04/12 10:19:25;;;;;;;5.85;2.50;;;;;;;14.38;36.85;100267.22;5047282;28;20469;-76
2023/04/12 10:21:51;;;;;;;5.73;2.17;;;;;;;14.45;36.33;100266.19;5050956;28;20396;-76
2023/04/12 10:24:20;;;;;;;3.63;2.13;;;;;;;14.62;36.18;100255.13;5041352;28;20391;-75
2023/04/12 10:26:49;;;;;;;5.22;2.47;;;;;;;14.87;36.13;100263.28;5041794;28;20381;-76
2023/04/12 10:29:26;;;;;;;3.88;1.60;;;;;;;14.22;36.33;100273.78;5051127;28;20412;-76
2023/04/12 10:31:54;;;;;;;5.80;2.20;;;;;;;14.49;35.88;100270.09;5051721;28;20385;-77
2023/04/12 10:34:30;;;;;;;6.20;1.90;;;;;;;14.56;35.43;100255.94;5051792;28;20385;-76
2023/04/12 10:36:55;;;;;;;5.82;1.75;;;;;;;14.55;35.59;100263.13;5051557;28;20380;-79
2023/04/12 10:39:41;;;;;;;6.32;1.90;;;;;;;14.44;35.70;100264.56;5051344;28;20459;-76
2023/04/12 10:42:22;;;;;;;6.57;2.08;;;;;;;14.86;35.57;100257.13;5051458;28;20472;-77
2023/04/12 10:44:49;;;;;;;4.22;1.50;;;;;;;14.88;35.41;100232.91;5052357;28;20383;-76
2023/04/12 10:47:16;;;;;;;3.67;2.00;;;;;;;15.16;35.64;100264.66;5035458;28;20429;-76
2023/04/12 10:50:20;;;;;;;7.72;1.80;;;;;;;14.98;35.13;100276.00;5031589;28;20780;-76
2023/04/12 10:53:11;;;;;;;5.10;1.23;;;;;;;14.86;34.69;100257.13;5037887;28;20878;-77
2023/04/12 10:55:44;;;;;;;3.08;1.50;;;;;;;15.08;34.31;100246.19;5033631;28;20390;-77
2023/04/12 10:58:48;;;;;;;4.15;1.10;;;;;;;14.79;33.91;100283.00;5043787;28;20476;-76
2023/04/12 11:01:17;;;;;;;4.87;1.50;;;;;;;14.79;34.32;100247.50;5039055;28;20893;-76
2023/04/12 11:04:05;;;;;;;3.33;1.40;;;;;;;15.25;33.92;100267.88;5032521;28;20889;-77
2023/04/12 11:06:52;;;;;;;4.22;1.23;;;;;;;15.04;33.94;100251.13;5031304;28;20857;-77
2023/04/12 11:09:21;;;;;;;3.60;1.30;;;;;;;15.03;34.09;100267.34;5031628;28;20441;-77
2023/04/12 11:11:48;;;;;;;5.65;1.55;;;;;;;14.98;34.70;100249.31;5031076;28;20853;-77
2023/04/12 11:14:17;;;;;;;3.33;1.60;;;;;;;15.11;35.01;100269.78;5031687;28;20408;-76
2023/04/12 11:17:04;;;;;;;2.13;1.05;;;;;;;14.71;35.13;100248.53;5031533;28;20378;-76
2023/04/12 11:19:31;;;;;;;6.45;1.77;;;;;;;14.99;35.22;100252.78;5031035;28;20366;-76
2023/04/12 11:21:58;;;;;;;3.20;1.02;;;;;;;14.88;34.15;100256.94;5031130;28;20385;-76
2023/04/12 11:24:23;;;;;;;3.65;1.48;;;;;;;14.71;34.38;100238.72;5031193;28;20459;-76
2023/04/12 11:26:50;;;;;;;3.70;1.27;;;;;;;15.06;34.40;100250.91;5044352;28;20872;-77